createdAt,value
2023-03-16T06:40:33.142Z,83.40
2023-03-16T06:43:02.177Z,84.10
2023-03-16T06:45:29.809Z,83.60
2023-03-16T06:47:57.118Z,83.50
2023-03-16T06:50:24.424Z,83.50
2023-03-16T06:52:51.778Z,83.40
2023-03-16T06:55:19.249Z,83.20
2023-03-16T06:57:47.003Z,82.80
2023-03-16T07:00:16.603Z,82.30
2023-03-16T07:02:43.984Z,82.00
2023-03-16T07:05:15.548Z,81.60
2023-03-16T07:07:44.251Z,81.20
2023-03-16T07:10:17.319Z,81.20
2023-03-16T07:12:45.592Z,81.00
2023-03-16T07:15:14.363Z,80.90
2023-03-16T07:17:42.778Z,80.40
2023-03-16T07:20:12.801Z,80.30
2023-03-16T07:22:41.829Z,80.10
2023-03-16T07:25:11.427Z,80.10
2023-03-16T07:27:38.991Z,80.50
2023-03-16T07:30:07.599Z,79.60
2023-03-16T07:32:34.993Z,79.60
2023-03-16T07:35:02.396Z,79.40
2023-03-16T07:37:29.804Z,79.40
2023-03-16T07:39:57.079Z,78.80
2023-03-16T07:42:24.790Z,79.10
2023-03-16T07:44:52.943Z,79.10
2023-03-16T07:47:21.071Z,78.60
2023-03-16T07:49:48.402Z,78.40
2023-03-16T07:52:15.723Z,78.60
2023-03-16T07:54:43.383Z,78.40
2023-03-16T07:57:11.922Z,78.20
2023-03-16T07:59:39.381Z,77.80
2023-03-16T08:02:11.815Z,77.90
2023-03-16T08:04:42.347Z,77.50
2023-03-16T08:07:13.186Z,77.40
2023-03-16T08:09:41.352Z,76.80
2023-03-16T08:12:10.063Z,76.40
2023-03-16T08:14:37.759Z,76.20
2023-03-16T08:17:07.549Z,76.10
2023-03-16T08:19:35.081Z,75.30
2023-03-16T08:22:02.453Z,74.90
2023-03-16T08:24:31.095Z,75.10
2023-03-16T08:27:00.036Z,74.90
2023-03-16T08:29:28.453Z,74.40
2023-03-16T08:31:56.574Z,73.80
2023-03-16T08:34:25.883Z,73.00
2023-03-16T08:36:54.099Z,73.20
2023-03-16T08:39:21.744Z,72.30
2023-03-16T08:41:49.085Z,71.70
2023-03-16T08:44:17.524Z,71.70
2023-03-16T08:46:45.311Z,71.00
2023-03-16T08:49:13.956Z,70.50
2023-03-16T08:51:44.775Z,70.40
2023-03-16T08:54:12.378Z,70.30
2023-03-16T08:56:39.657Z,70.20
2023-03-16T08:59:09.010Z,69.60
2023-03-16T09:01:40.475Z,69.10
2023-03-16T09:04:07.941Z,68.80
2023-03-16T09:06:36.167Z,68.30
2023-03-16T09:09:04.567Z,67.80
2023-03-16T09:11:33.745Z,68.00
2023-03-16T09:14:01.344Z,68.00
2023-03-16T09:16:30.885Z,67.70
2023-03-16T09:18:58.760Z,67.50
2023-03-16T09:21:26.617Z,66.70
2023-03-16T09:23:55.027Z,66.60
2023-03-16T09:26:22.663Z,66.40
2023-03-16T09:28:50.026Z,66.50
2023-03-16T09:31:20.309Z,65.60
2023-03-16T09:33:48.566Z,65.50
2023-03-16T09:36:16.553Z,65.50
2023-03-16T09:38:44.887Z,64.40
2023-03-16T09:41:51.462Z,64.90
2023-03-16T09:44:39.965Z,64.00
2023-03-16T09:47:12.061Z,64.30
2023-03-16T09:49:50.077Z,63.50
2023-03-16T09:52:55.464Z,62.00
2023-03-16T09:55:33.253Z,62.30
2023-03-16T09:58:05.483Z,61.90
2023-03-16T10:00:48.789Z,61.70
2023-03-16T10:03:39.792Z,61.40
2023-03-16T10:06:13.878Z,60.60
2023-03-16T10:09:28.811Z,60.20
2023-03-16T10:11:58.802Z,59.80
2023-03-16T10:15:04.852Z,60.50
2023-03-16T10:17:50.064Z,60.40
2023-03-16T10:20:23.465Z,59.40
2023-03-16T10:22:54.512Z,59.10
2023-03-16T10:25:48.652Z,59.00
2023-03-16T10:28:26.307Z,57.80
2023-03-16T10:30:59.349Z,57.60
2023-03-16T10:33:33.743Z,56.80
2023-03-16T10:36:27.558Z,56.60
2023-03-16T10:39:04.962Z,55.70
2023-03-16T10:41:38.663Z,55.10
2023-03-16T10:44:28.567Z,55.90
2023-03-16T10:47:08.483Z,54.60
2023-03-16T10:49:41.949Z,54.30
2023-03-16T10:52:43.295Z,53.50
2023-03-16T10:55:29.192Z,52.80
2023-03-16T10:57:57.337Z,54.40
2023-03-16T11:00:41.857Z,52.80
2023-03-16T11:03:41.759Z,52.30
2023-03-16T11:06:33.415Z,52.20
2023-03-16T11:09:34.609Z,52.40
2023-03-16T11:12:31.337Z,50.60
2023-03-16T11:15:25.923Z,50.70
2023-03-16T11:17:54.692Z,50.20
2023-03-16T11:20:32.634Z,48.40
2023-03-16T11:23:02.552Z,48.20
2023-03-16T11:25:42.433Z,47.20
2023-03-16T11:28:29.910Z,46.50
2023-03-16T11:31:42.826Z,46.10
2023-03-16T11:34:20.110Z,46.00
2023-03-16T11:38:09.751Z,45.00
2023-03-16T11:41:10.812Z,45.00
2023-03-16T11:43:59.387Z,43.70
2023-03-16T11:46:55.619Z,43.90
2023-03-16T11:50:15.706Z,43.20
2023-03-16T11:54:19.835Z,43.50
2023-03-16T11:57:59.393Z,42.80
2023-03-16T12:00:57.781Z,42.70
2023-03-16T12:04:48.911Z,41.60
2023-03-16T12:07:55.690Z,41.20
2023-03-16T12:11:00.264Z,41.20
2023-03-16T12:14:23.394Z,41.00
2023-03-16T12:17:15.794Z,41.10
2023-03-16T12:20:32.089Z,40.50
2023-03-16T12:23:19.581Z,40.50
2023-03-16T12:25:50.413Z,40.10
2023-03-16T12:28:32.203Z,40.30
2023-03-16T12:31:56.065Z,40.30
2023-03-16T12:35:00.156Z,39.50
2023-03-16T12:37:52.320Z,39.60
2023-03-16T12:40:49.971Z,39.40
2023-03-16T12:44:08.102Z,39.30
2023-03-16T12:47:13.120Z,39.00
2023-03-16T12:49:41.858Z,38.70
2023-03-16T12:52:14.573Z,38.90
2023-03-16T12:55:40.333Z,38.80
2023-03-16T12:58:09.504Z,38.90
2023-03-16T13:00:42.845Z,38.40
2023-03-16T13:03:23.132Z,37.10
2023-03-16T13:06:00.803Z,37.50
2023-03-16T13:08:28.989Z,37.50
2023-03-16T13:11:07.365Z,37.80
2023-03-16T13:13:36.341Z,37.30
2023-03-16T13:16:22.335Z,37.30
2023-03-16T13:18:49.834Z,38.00
2023-03-16T13:21:41.262Z,37.00
2023-03-16T13:24:35.394Z,36.90
2023-03-16T13:27:30.083Z,37.40
2023-03-16T13:30:29.019Z,37.20
2023-03-16T13:33:22.882Z,37.00
2023-03-16T13:35:53.565Z,36.90
2023-03-16T13:38:28.463Z,37.10
2023-03-16T13:41:09.618Z,36.80
2023-03-16T13:43:43.916Z,36.20
2023-03-16T13:46:19.014Z,36.60
2023-03-16T13:48:49.834Z,36.10
2023-03-16T13:51:22.769Z,35.40
2023-03-16T13:53:50.915Z,35.80
2023-03-16T13:56:27.071Z,35.80
2023-03-16T13:58:57.081Z,35.20
2023-03-16T14:01:32.124Z,35.80
2023-03-16T14:04:11.905Z,35.90
2023-03-16T14:06:41.391Z,35.30
2023-03-16T14:09:21.784Z,36.10
2023-03-16T14:11:49.128Z,36.20
2023-03-16T14:14:36.806Z,36.40
2023-03-16T14:17:16.991Z,35.80
2023-03-16T14:19:59.645Z,35.00
2023-03-16T14:22:38.393Z,35.80
2023-03-16T14:25:07.520Z,35.30
2023-03-16T14:27:40.734Z,34.80
2023-03-16T14:30:28.008Z,34.70
2023-03-16T14:33:05.677Z,34.90
2023-03-16T14:35:44.001Z,34.90
2023-03-16T14:38:35.287Z,35.00
2023-03-16T14:41:26.429Z,34.10
2023-03-16T14:44:01.790Z,34.40
2023-03-16T14:46:42.881Z,34.50
2023-03-16T14:49:38.587Z,34.90
2023-03-16T14:52:29.761Z,35.10
2023-03-16T14:54:58.269Z,35.80
2023-03-16T14:57:26.819Z,35.60
2023-03-16T14:59:55.662Z,34.60
2023-03-16T15:02:32.720Z,34.40
2023-03-16T15:05:02.054Z,34.70
2023-03-16T15:07:35.599Z,35.20
2023-03-16T15:10:27.409Z,34.20
2023-03-16T15:12:56.027Z,34.00
2023-03-16T15:15:27.485Z,34.60
2023-03-16T15:17:55.120Z,34.40
2023-03-16T15:20:32.879Z,34.40
2023-03-16T15:23:01.824Z,34.30
2023-03-16T15:25:43.247Z,34.00
2023-03-16T15:28:22.029Z,34.60
2023-03-16T15:30:53.551Z,35.00
2023-03-16T15:33:22.181Z,35.00
2023-03-16T15:35:53.391Z,35.20
2023-03-16T15:38:39.793Z,35.40
2023-03-16T15:41:11.548Z,34.90
2023-03-16T15:43:39.655Z,35.40
2023-03-16T15:46:07.346Z,36.00
2023-03-16T15:48:34.821Z,36.40
2023-03-16T15:51:27.687Z,36.50
2023-03-16T15:54:06.925Z,36.30
2023-03-16T15:56:53.162Z,35.80
2023-03-16T15:59:24.200Z,36.20
2023-03-16T16:01:52.749Z,36.20
2023-03-16T16:04:24.357Z,36.40
2023-03-16T16:06:57.761Z,36.40
2023-03-16T16:09:25.774Z,36.70
2023-03-16T16:11:53.117Z,36.70
2023-03-16T16:14:25.332Z,36.70
2023-03-16T16:16:54.471Z,36.50
2023-03-16T16:19:22.147Z,36.50
2023-03-16T16:21:49.513Z,36.50
2023-03-16T16:24:18.425Z,36.50
2023-03-16T16:26:54.312Z,36.90
2023-03-16T16:29:30.143Z,36.70
2023-03-16T16:31:57.609Z,36.70
2023-03-16T16:34:27.031Z,37.10
2023-03-16T16:36:57.153Z,37.20
2023-03-16T16:39:25.413Z,37.10
2023-03-16T16:41:56.413Z,37.10
2023-03-16T16:44:30.445Z,37.30
2023-03-16T16:46:59.812Z,37.10
2023-03-16T16:49:31.297Z,37.40
2023-03-16T16:51:59.780Z,37.30
2023-03-16T16:54:31.628Z,37.20
2023-03-16T16:57:01.212Z,37.20
2023-03-16T16:59:38.119Z,37.20
2023-03-16T17:02:42.196Z,37.70
2023-03-16T17:05:28.435Z,37.50
2023-03-16T17:07:56.355Z,37.80
2023-03-16T17:10:27.205Z,38.10
2023-03-16T17:12:57.114Z,38.30
2023-03-16T17:15:30.271Z,38.50
2023-03-16T17:18:14.306Z,38.90
2023-03-16T17:20:41.988Z,38.90
2023-03-16T17:23:37.132Z,39.20
2023-03-16T17:26:39.707Z,39.40
2023-03-16T17:29:26.987Z,39.70
2023-03-16T17:31:54.423Z,40.00
2023-03-16T17:34:27.324Z,40.20
2023-03-16T17:36:55.793Z,40.40
2023-03-16T17:39:34.484Z,40.50
2023-03-16T17:42:19.888Z,40.80
2023-03-16T17:44:53.274Z,40.80
2023-03-16T17:47:26.536Z,40.80
2023-03-16T17:49:55.074Z,41.00
2023-03-16T17:52:29.197Z,41.10
2023-03-16T17:54:56.689Z,41.20
2023-03-16T17:57:34.185Z,41.20
2023-03-16T18:00:18.356Z,41.50
2023-03-16T18:03:17.698Z,41.60
2023-03-16T18:05:46.222Z,42.00
2023-03-16T18:08:25.975Z,42.00
2023-03-16T18:11:06.793Z,42.40
2023-03-16T18:13:39.412Z,42.50
2023-03-16T18:16:08.255Z,42.60
2023-03-16T18:18:41.135Z,43.00
2023-03-16T18:21:19.017Z,43.10
2023-03-16T18:23:46.715Z,43.30
2023-03-16T18:26:14.352Z,43.60
2023-03-16T18:28:42.019Z,43.50
2023-03-16T18:31:23.912Z,43.50
2023-03-16T18:33:59.716Z,43.80
2023-03-16T18:36:37.784Z,43.70
2023-03-16T18:39:16.215Z,43.90
2023-03-16T18:41:44.650Z,43.90
2023-03-16T18:44:21.739Z,44.00
2023-03-16T18:46:51.823Z,44.30
2023-03-16T18:49:36.674Z,44.50
2023-03-16T18:52:16.665Z,44.50
2023-03-16T18:54:46.216Z,44.60
2023-03-16T18:57:24.886Z,44.80
2023-03-16T18:59:52.612Z,45.10
2023-03-16T19:02:43.133Z,45.00
2023-03-16T19:05:30.606Z,45.20
2023-03-16T19:07:58.074Z,45.10
2023-03-16T19:10:38.637Z,45.30
2023-03-16T19:13:17.266Z,45.50
2023-03-16T19:15:45.767Z,45.50
2023-03-16T19:18:13.244Z,45.60
2023-03-16T19:20:43.689Z,46.00
2023-03-16T19:23:32.961Z,46.20
2023-03-16T19:26:00.674Z,46.40
2023-03-16T19:28:39.062Z,47.10
2023-03-16T19:31:30.287Z,47.30
2023-03-16T19:33:58.581Z,48.00
2023-03-16T19:36:30.560Z,48.10
2023-03-16T19:38:59.595Z,48.30
2023-03-16T19:41:37.160Z,48.60
2023-03-16T19:44:19.833Z,48.50
2023-03-16T19:46:48.809Z,48.50
2023-03-16T19:49:24.855Z,48.80
2023-03-16T19:51:55.192Z,48.90
2023-03-16T19:54:32.137Z,49.00
2023-03-16T19:57:11.411Z,49.00
2023-03-16T19:59:40.325Z,49.20
2023-03-16T20:02:40.694Z,49.30
2023-03-16T20:05:23.535Z,49.50
2023-03-16T20:07:51.557Z,49.50
2023-03-16T20:10:32.585Z,49.40
2023-03-16T20:13:01.717Z,49.80
2023-03-16T20:15:32.646Z,49.80
2023-03-16T20:18:01.239Z,49.80
2023-03-16T20:20:37.517Z,49.90
2023-03-16T20:23:29.333Z,49.90
2023-03-16T20:26:02.777Z,50.00
2023-03-16T20:28:36.304Z,50.10
2023-03-16T20:31:16.119Z,50.10
2023-03-16T20:33:43.471Z,50.20
2023-03-16T20:36:15.991Z,50.50
2023-03-16T20:38:43.613Z,50.50
2023-03-16T20:41:30.409Z,50.70
2023-03-16T20:44:01.781Z,50.90
2023-03-16T20:46:33.007Z,51.00
2023-03-16T20:49:00.890Z,51.00
2023-03-16T20:51:28.927Z,51.30
2023-03-16T20:53:56.280Z,51.40
2023-03-16T20:56:26.634Z,51.60
2023-03-16T20:58:56.154Z,51.80
2023-03-16T21:01:24.625Z,51.90
2023-03-16T21:03:55.665Z,52.10
2023-03-16T21:06:31.687Z,52.20
2023-03-16T21:09:03.340Z,52.40
2023-03-16T21:11:38.847Z,52.50
2023-03-16T21:14:22.041Z,52.50
2023-03-16T21:16:50.986Z,52.50
2023-03-16T21:19:23.421Z,52.50
2023-03-16T21:21:51.508Z,52.80
2023-03-16T21:24:18.840Z,52.60
2023-03-16T21:26:47.543Z,52.70
2023-03-16T21:29:23.824Z,52.60
2023-03-16T21:31:51.830Z,52.70
2023-03-16T21:34:29.456Z,52.90
2023-03-16T21:36:56.752Z,53.10
2023-03-16T21:39:25.356Z,53.10
2023-03-16T21:41:53.580Z,53.20
2023-03-16T21:44:21.290Z,53.40
2023-03-16T21:46:48.842Z,53.70
2023-03-16T21:49:16.433Z,53.90
2023-03-16T21:51:44.023Z,53.80
2023-03-16T21:54:17.954Z,53.90
2023-03-16T21:56:47.748Z,54.00
2023-03-16T21:59:15.564Z,53.90
2023-03-16T22:01:58.657Z,54.10
2023-03-16T22:04:28.013Z,54.10
2023-03-16T22:06:55.716Z,53.90
2023-03-16T22:09:24.923Z,54.20
2023-03-16T22:11:52.330Z,54.20
2023-03-16T22:14:19.636Z,54.00
2023-03-16T22:16:46.986Z,54.20
2023-03-16T22:19:15.888Z,54.40
2023-03-16T22:21:46.551Z,54.50
2023-03-16T22:24:26.410Z,54.30
2023-03-16T22:26:54.937Z,54.60
2023-03-16T22:29:31.283Z,54.40
2023-03-16T22:32:08.544Z,54.50
2023-03-16T22:34:56.475Z,54.60
2023-03-16T22:37:28.699Z,54.70
2023-03-16T22:39:58.452Z,54.60
2023-03-16T22:42:38.816Z,54.80
2023-03-16T22:45:26.937Z,54.80
2023-03-16T22:47:57.544Z,55.00
2023-03-16T22:50:28.312Z,55.00
2023-03-16T22:53:04.188Z,55.30
2023-03-16T22:55:39.341Z,55.40
2023-03-16T22:58:38.415Z,55.10
2023-03-16T23:01:48.610Z,55.30
2023-03-16T23:04:30.281Z,55.30
2023-03-16T23:06:59.100Z,55.10
2023-03-16T23:09:26.567Z,55.30
2023-03-16T23:11:56.554Z,55.30
2023-03-16T23:14:30.517Z,55.30
2023-03-16T23:16:57.877Z,55.40
2023-03-16T23:19:34.160Z,55.30
2023-03-16T23:22:06.843Z,55.60
2023-03-16T23:24:36.376Z,55.60
2023-03-16T23:27:07.322Z,55.60
2023-03-16T23:29:34.686Z,55.60
2023-03-16T23:32:02.365Z,55.60
2023-03-16T23:34:29.725Z,55.80
2023-03-16T23:36:57.044Z,55.90
2023-03-16T23:39:24.364Z,55.90
2023-03-16T23:41:52.989Z,55.90
2023-03-16T23:44:27.397Z,55.70
2023-03-16T23:46:54.945Z,55.70
